createdAt,value
2018-07-03T00:01:19.463Z,9.90
2018-07-03T00:03:48.487Z,10.00
2018-07-03T00:06:17.702Z,10.00
2018-07-03T00:08:46.955Z,10.00
2018-07-03T00:11:15.858Z,10.00
2018-07-03T00:13:44.979Z,10.00
2018-07-03T00:16:19.027Z,9.90
2018-07-03T00:18:48.656Z,9.90
2018-07-03T00:21:18.620Z,9.90
2018-07-03T00:23:47.615Z,9.90
2018-07-03T00:26:16.742Z,9.90
2018-07-03T00:28:45.689Z,9.80
2018-07-03T00:31:14.739Z,9.70
2018-07-03T00:33:44.249Z,9.50
2018-07-03T00:36:13.734Z,9.40
2018-07-03T00:38:43.480Z,9.40
2018-07-03T00:41:12.474Z,9.40
2018-07-03T00:43:41.381Z,9.30
2018-07-03T00:46:10.356Z,9.30
2018-07-03T00:48:39.404Z,9.20
2018-07-03T00:51:09.112Z,9.20
2018-07-03T00:53:38.069Z,9.10
2018-07-03T00:56:07.111Z,9.10
2018-07-03T00:58:36.658Z,9.10
2018-07-03T01:01:06.581Z,9.10
2018-07-03T01:03:37.959Z,9.20
2018-07-03T01:06:06.926Z,9.10
2018-07-03T01:08:36.494Z,9.10
2018-07-03T01:11:05.932Z,9.10
2018-07-03T01:13:34.933Z,9.00
2018-07-03T01:16:04.069Z,8.90
2018-07-03T01:18:32.957Z,8.80
2018-07-03T01:21:02.672Z,8.80
2018-07-03T01:23:32.428Z,8.70
2018-07-03T01:26:02.214Z,8.70
2018-07-03T01:28:31.332Z,8.70
2018-07-03T01:31:00.282Z,8.60
2018-07-03T01:33:29.287Z,8.60
2018-07-03T01:35:58.333Z,8.60
2018-07-03T01:38:27.378Z,8.50
2018-07-03T01:40:56.296Z,8.50
2018-07-03T01:43:26.669Z,8.50
2018-07-03T01:45:55.861Z,8.40
2018-07-03T01:48:24.833Z,8.40
2018-07-03T01:50:53.998Z,8.30
2018-07-03T01:53:22.987Z,8.30
2018-07-03T01:55:51.901Z,8.20
2018-07-03T01:58:21.574Z,8.20
2018-07-03T02:00:50.804Z,8.10
2018-07-03T02:03:19.834Z,8.00
2018-07-03T02:05:50.368Z,8.00
2018-07-03T02:08:19.477Z,8.00
2018-07-03T02:10:48.769Z,8.00
2018-07-03T02:13:18.913Z,7.90
2018-07-03T02:15:47.911Z,7.90
2018-07-03T02:18:17.200Z,7.90
2018-07-03T02:20:46.905Z,7.90
2018-07-03T02:23:16.834Z,7.90
2018-07-03T02:25:45.802Z,7.90
2018-07-03T02:28:14.816Z,7.90
2018-07-03T02:30:43.788Z,8.00
2018-07-03T02:33:12.691Z,8.00
2018-07-03T02:35:41.690Z,8.00
2018-07-03T02:38:11.079Z,8.00
2018-07-03T02:40:41.350Z,7.90
2018-07-03T02:43:10.309Z,7.90
2018-07-03T02:45:39.291Z,7.90
2018-07-03T02:48:08.337Z,7.90
2018-07-03T02:50:38.318Z,7.80
2018-07-03T02:53:07.253Z,7.80
2018-07-03T02:55:36.198Z,7.80
2018-07-03T02:58:05.108Z,7.80
2018-07-03T03:00:34.642Z,7.80
2018-07-03T03:03:04.896Z,7.80
2018-07-03T03:05:34.024Z,7.80
2018-07-03T03:08:03.037Z,7.80
2018-07-03T03:10:32.513Z,7.70
2018-07-03T03:13:02.742Z,7.70
2018-07-03T03:15:31.687Z,7.70
2018-07-03T03:18:01.449Z,7.70
2018-07-03T03:20:31.353Z,7.70
2018-07-03T03:23:00.232Z,7.70
2018-07-03T03:25:31.380Z,7.70
2018-07-03T03:28:00.650Z,7.70
2018-07-03T03:30:29.681Z,7.70
2018-07-03T03:32:58.617Z,7.80
2018-07-03T03:35:28.889Z,7.80
2018-07-03T03:37:57.914Z,7.80
2018-07-03T03:40:27.293Z,7.90
2018-07-03T03:42:57.004Z,7.90
2018-07-03T03:45:26.873Z,7.90
2018-07-03T03:47:56.081Z,8.00
2018-07-03T03:50:26.353Z,8.10
2018-07-03T03:52:55.409Z,8.20
2018-07-03T03:55:24.438Z,8.20
2018-07-03T03:57:54.485Z,8.30
2018-07-03T04:00:23.532Z,8.40
2018-07-03T04:02:52.459Z,8.40
2018-07-03T04:05:23.163Z,8.50
2018-07-03T04:07:52.321Z,8.50
2018-07-03T04:10:21.301Z,8.60
2018-07-03T04:12:50.359Z,8.60
2018-07-03T04:15:20.920Z,8.70
2018-07-03T04:17:50.531Z,8.80
2018-07-03T04:20:19.398Z,8.90
2018-07-03T04:22:48.468Z,9.00
2018-07-03T04:25:17.270Z,9.20
2018-07-03T04:27:46.264Z,9.30
2018-07-03T04:30:15.460Z,9.40
2018-07-03T04:32:44.183Z,9.50
2018-07-03T04:35:13.198Z,9.60
2018-07-03T04:37:42.260Z,9.70
2018-07-03T04:40:11.279Z,9.90
2018-07-03T04:42:40.393Z,10.10
2018-07-03T04:45:09.556Z,10.20
2018-07-03T04:47:38.567Z,10.40
2018-07-03T04:50:07.583Z,10.60
2018-07-03T04:52:36.611Z,10.80
2018-07-03T04:55:05.823Z,11.00
2018-07-03T04:57:34.795Z,11.20
2018-07-03T05:00:03.877Z,11.40
2018-07-03T05:02:33.073Z,11.60
2018-07-03T05:05:02.085Z,11.70
2018-07-03T05:07:31.102Z,11.90
2018-07-03T05:09:59.928Z,12.10
2018-07-03T05:12:29.453Z,12.30
2018-07-03T05:14:58.572Z,12.40
2018-07-03T05:17:28.479Z,12.60
2018-07-03T05:19:57.609Z,12.80
2018-07-03T05:22:26.630Z,13.00
2018-07-03T05:24:55.732Z,13.30
2018-07-03T05:27:25.377Z,13.60
2018-07-03T05:29:54.488Z,13.90
2018-07-03T05:32:23.626Z,14.20
2018-07-03T05:34:53.234Z,14.60
2018-07-03T05:37:23.703Z,15.00
2018-07-03T05:39:52.727Z,15.50
2018-07-03T05:42:22.683Z,16.00
2018-07-03T05:44:51.743Z,16.40
2018-07-03T05:47:23.525Z,16.90
2018-07-03T05:49:52.541Z,17.20
2018-07-03T05:52:21.786Z,17.70
2018-07-03T05:54:50.818Z,18.20
2018-07-03T05:57:21.341Z,18.30
2018-07-03T05:59:50.478Z,18.70
2018-07-03T06:02:19.897Z,19.00
2018-07-03T06:04:49.762Z,19.30
2018-07-03T06:07:18.698Z,19.60
2018-07-03T06:09:49.495Z,20.00
2018-07-03T06:12:18.638Z,20.10
2018-07-03T06:14:47.690Z,20.60
2018-07-03T06:17:18.227Z,21.00
2018-07-03T06:19:47.216Z,21.20
2018-07-03T06:22:17.125Z,21.80
2018-07-03T06:24:46.237Z,22.10
2018-07-03T06:27:15.451Z,22.60
2018-07-03T06:29:45.695Z,23.00
2018-07-03T06:32:15.674Z,23.50
2018-07-03T06:34:45.385Z,23.80
2018-07-03T06:37:15.444Z,23.90
2018-07-03T06:39:44.521Z,24.00
2018-07-03T06:42:14.468Z,24.30
2018-07-03T06:44:45.427Z,24.40
2018-07-03T06:47:14.635Z,25.00
2018-07-03T06:49:43.840Z,25.30
2018-07-03T06:52:14.795Z,25.60
2018-07-03T06:54:43.866Z,25.60
2018-07-03T06:57:13.679Z,26.50
2018-07-03T06:59:42.705Z,26.20
2018-07-03T07:05:11.137Z,25.80
2018-07-03T07:07:40.527Z,26.30
2018-07-03T07:10:11.464Z,26.20
2018-07-03T07:12:40.561Z,27.20
2018-07-03T07:15:11.507Z,27.10
2018-07-03T07:17:45.872Z,27.50
2018-07-03T07:20:16.438Z,27.90
2018-07-03T07:22:45.566Z,27.80
2018-07-03T07:25:16.558Z,28.10
2018-07-03T07:27:46.247Z,27.60
2018-07-03T07:30:18.139Z,27.70
2018-07-03T07:32:49.721Z,27.80
2018-07-03T07:35:18.853Z,27.80
2018-07-03T07:37:49.083Z,28.40
2018-07-03T07:40:20.527Z,29.40
2018-07-03T07:42:50.344Z,29.30
2018-07-03T07:45:19.204Z,29.20
2018-07-03T07:47:49.038Z,30.20
2018-07-03T07:50:19.008Z,30.70
2018-07-03T07:52:48.980Z,30.00
2018-07-03T07:55:19.971Z,29.20
2018-07-03T07:57:50.084Z,29.70
2018-07-03T08:00:21.532Z,29.90
2018-07-03T08:02:51.043Z,30.30
2018-07-03T08:05:20.971Z,30.40
2018-07-03T08:07:50.095Z,30.10
2018-07-03T08:10:19.630Z,29.90
2018-07-03T08:12:48.751Z,29.70
2018-07-03T08:15:17.900Z,30.30
2018-07-03T08:17:47.631Z,30.20
2018-07-03T08:20:17.594Z,31.10
2018-07-03T08:22:49.398Z,31.60
2018-07-03T08:25:20.761Z,32.20
2018-07-03T08:27:49.897Z,32.50
2018-07-03T08:30:20.029Z,32.80
2018-07-03T08:32:51.000Z,31.60
2018-07-03T08:35:20.052Z,30.30
2018-07-03T08:37:49.491Z,30.50
2018-07-03T08:40:18.575Z,30.30
2018-07-03T08:42:50.421Z,30.70
2018-07-03T08:45:19.533Z,30.50
2018-07-03T08:47:50.071Z,30.50
2018-07-03T08:50:19.827Z,30.80
2018-07-03T08:52:48.830Z,31.40
2018-07-03T08:55:20.478Z,31.50
2018-07-03T08:57:49.817Z,31.80
2018-07-03T09:00:20.644Z,31.60
2018-07-03T09:02:51.269Z,32.20
2018-07-03T09:05:21.377Z,31.90
2018-07-03T09:07:51.737Z,32.40
2018-07-03T09:10:20.816Z,32.80
2018-07-03T09:12:50.838Z,32.50
2018-07-03T09:15:20.037Z,31.20
2018-07-03T09:17:51.936Z,30.50
2018-07-03T09:20:21.483Z,30.50
2018-07-03T09:22:50.627Z,30.00
2018-07-03T09:25:20.473Z,29.10
2018-07-03T09:27:50.984Z,30.50
2018-07-03T09:30:20.705Z,31.60
2018-07-03T09:32:52.127Z,32.70
2018-07-03T09:35:21.279Z,33.50
2018-07-03T09:37:51.280Z,33.50
2018-07-03T09:40:20.371Z,34.00
2018-07-03T09:42:54.935Z,32.80
2018-07-03T09:45:25.622Z,33.30
2018-07-03T09:47:54.793Z,32.90
2018-07-03T09:50:25.900Z,33.20
2018-07-03T09:52:54.943Z,32.10
2018-07-03T09:55:25.582Z,32.70
2018-07-03T09:57:55.675Z,33.20
2018-07-03T10:00:30.069Z,33.50
2018-07-03T10:03:00.424Z,34.30
2018-07-03T10:05:30.558Z,34.50
2018-07-03T10:07:59.683Z,34.90
2018-07-03T10:10:30.777Z,34.30
2018-07-03T10:13:01.630Z,32.60
2018-07-03T10:15:30.660Z,32.00
2018-07-03T10:18:00.924Z,31.00
2018-07-03T10:20:30.960Z,31.20
2018-07-03T10:23:01.389Z,30.90
2018-07-03T10:25:31.629Z,31.00
2018-07-03T10:28:02.063Z,31.30
2018-07-03T10:30:31.259Z,32.20
2018-07-03T10:33:00.311Z,33.20
2018-07-03T10:35:30.221Z,33.00
2018-07-03T10:38:00.213Z,32.60
2018-07-03T10:40:30.457Z,32.60
2018-07-03T10:43:00.232Z,32.70
2018-07-03T10:45:30.060Z,32.50
2018-07-03T10:48:02.439Z,32.60
2018-07-03T10:50:32.958Z,32.90
2018-07-03T10:53:03.027Z,33.70
2018-07-03T10:55:33.355Z,33.80
2018-07-03T10:58:04.146Z,34.00
2018-07-03T11:00:34.174Z,34.10
2018-07-03T11:03:03.831Z,31.90
2018-07-03T11:05:33.659Z,31.50
2018-07-03T11:08:02.703Z,32.40
2018-07-03T11:10:31.766Z,31.90
2018-07-03T11:13:01.339Z,31.20
2018-07-03T11:15:31.257Z,31.40
2018-07-03T11:18:00.295Z,31.70
2018-07-03T11:20:30.301Z,31.80
2018-07-03T11:22:59.601Z,32.10
2018-07-03T11:25:29.466Z,31.70
2018-07-03T11:27:59.874Z,31.40
2018-07-03T11:30:29.557Z,31.40
2018-07-03T11:32:59.557Z,31.80
2018-07-03T11:35:28.755Z,31.80
2018-07-03T11:37:59.672Z,32.10
2018-07-03T11:40:29.150Z,32.10
2018-07-03T11:42:58.216Z,32.10
2018-07-03T11:45:28.551Z,32.40
2018-07-03T11:47:57.731Z,32.40
2018-07-03T11:50:27.611Z,31.80
2018-07-03T11:52:58.246Z,31.80
2018-07-03T11:55:27.239Z,32.30
2018-07-03T11:57:58.821Z,33.20
2018-07-03T12:00:28.062Z,33.00
2018-07-03T12:02:57.233Z,33.20
2018-07-03T12:05:28.494Z,33.40
2018-07-03T12:07:57.489Z,33.60
2018-07-03T12:10:27.809Z,34.00
2018-07-03T12:12:57.739Z,34.50
2018-07-03T12:15:32.566Z,34.70
2018-07-03T12:18:01.694Z,33.50
2018-07-03T12:20:34.606Z,33.40
2018-07-03T12:23:03.590Z,33.20
2018-07-03T12:25:33.199Z,32.50
2018-07-03T12:28:03.006Z,32.20
2018-07-03T12:30:32.720Z,31.90
2018-07-03T12:33:02.749Z,32.10
2018-07-03T12:35:32.939Z,32.30
2018-07-03T12:38:02.625Z,31.70
2018-07-03T12:40:33.135Z,31.40
2018-07-03T12:43:03.862Z,32.00
2018-07-03T12:45:33.853Z,32.80
2018-07-03T12:48:05.159Z,32.80
2018-07-03T12:50:34.191Z,32.30
2018-07-03T12:53:03.081Z,32.50
2018-07-03T12:55:32.023Z,32.40
2018-07-03T12:58:02.009Z,32.30
2018-07-03T13:00:31.726Z,32.70
2018-07-03T13:03:00.900Z,32.10
2018-07-03T13:05:30.730Z,31.50
2018-07-03T13:07:59.997Z,31.40
2018-07-03T13:10:29.672Z,31.50
2018-07-03T13:13:00.726Z,31.20
2018-07-03T13:15:30.906Z,31.20
2018-07-03T13:18:04.947Z,31.80
2018-07-03T13:20:37.072Z,31.80
2018-07-03T13:23:10.231Z,30.80
2018-07-03T13:25:40.219Z,31.30
2018-07-03T13:28:10.221Z,31.90
2018-07-03T13:30:40.832Z,32.10
2018-07-03T13:33:09.983Z,32.10
2018-07-03T13:35:40.425Z,31.40
2018-07-03T13:38:09.556Z,30.60
2018-07-03T13:40:42.774Z,30.80
2018-07-03T13:43:11.974Z,30.50
2018-07-03T13:45:50.311Z,30.60
2018-07-03T13:48:19.955Z,30.30
2018-07-03T13:50:50.862Z,30.40
2018-07-03T13:53:19.982Z,30.50
2018-07-03T13:55:49.170Z,30.20
2018-07-03T13:58:18.130Z,30.00
2018-07-03T14:00:48.024Z,29.70
2018-07-03T14:03:17.686Z,29.50
2018-07-03T14:05:47.481Z,29.40
2018-07-03T14:08:18.618Z,29.30
2018-07-03T14:10:51.592Z,29.10
2018-07-03T14:13:22.132Z,29.10
2018-07-03T14:15:53.925Z,29.00
2018-07-03T14:18:26.872Z,28.80
2018-07-03T14:20:58.634Z,28.90
2018-07-03T14:23:29.513Z,29.10
2018-07-03T14:25:59.299Z,28.90
2018-07-03T14:28:29.797Z,28.70
2018-07-03T14:30:59.503Z,28.70
2018-07-03T14:33:29.191Z,29.00
2018-07-03T14:35:59.883Z,28.90
2018-07-03T14:38:29.428Z,28.80
2018-07-03T14:40:59.292Z,28.70
2018-07-03T14:43:30.303Z,28.60
2018-07-03T14:46:00.085Z,28.40
2018-07-03T14:48:31.500Z,28.30
2018-07-03T14:51:01.562Z,28.20
2018-07-03T14:53:31.894Z,28.20
2018-07-03T14:56:03.556Z,28.10
2018-07-03T14:58:32.598Z,27.80
2018-07-03T15:01:02.439Z,27.70
2018-07-03T15:03:32.391Z,27.60
2018-07-03T15:06:02.995Z,27.80
2018-07-03T15:08:36.763Z,27.80
2018-07-03T15:11:07.841Z,27.70
2018-07-03T15:13:38.274Z,27.70
2018-07-03T15:16:11.475Z,28.00
2018-07-03T15:18:45.502Z,27.80
2018-07-03T15:21:15.586Z,27.70
2018-07-03T15:23:47.765Z,27.70
2018-07-03T15:26:16.749Z,27.70
2018-07-03T15:28:46.682Z,27.60
2018-07-03T15:31:16.708Z,27.10
2018-07-03T15:33:45.176Z,27.00
2018-07-03T15:36:13.837Z,27.00
2018-07-03T15:38:42.558Z,27.20
2018-07-03T15:41:11.743Z,27.30
2018-07-03T15:43:42.144Z,27.30
2018-07-03T15:46:10.663Z,27.40
2018-07-03T15:48:39.231Z,27.30
2018-07-03T15:51:07.769Z,27.10
2018-07-03T15:53:36.217Z,27.10
2018-07-03T15:56:05.014Z,27.20
2018-07-03T15:58:33.522Z,27.20
2018-07-03T16:01:05.088Z,27.50
2018-07-03T16:06:10.877Z,27.60
2018-07-03T16:09:17.900Z,27.70
2018-07-03T16:11:46.639Z,27.50
2018-07-03T16:14:15.145Z,27.20
2018-07-03T16:16:43.809Z,27.10
2018-07-03T16:19:17.659Z,26.90
2018-07-03T16:21:48.742Z,26.90
2018-07-03T16:24:17.421Z,26.80
2018-07-03T16:26:46.231Z,26.80
2018-07-03T16:29:14.780Z,26.70
2018-07-03T16:31:43.736Z,26.70
2018-07-03T16:34:12.199Z,26.80
2018-07-03T16:36:42.485Z,26.70
2018-07-03T16:39:12.244Z,26.60
2018-07-03T16:41:40.728Z,26.60
2018-07-03T16:44:10.222Z,26.60
2018-07-03T16:46:39.044Z,26.50
2018-07-03T16:49:08.004Z,26.50
2018-07-03T16:51:37.770Z,26.40
2018-07-03T16:54:06.503Z,26.30
2018-07-03T16:56:35.174Z,26.20
2018-07-03T16:59:04.683Z,26.10
2018-07-03T17:01:33.166Z,26.10
2018-07-03T17:04:01.897Z,25.90
2018-07-03T17:06:30.410Z,25.80
2018-07-03T17:09:01.494Z,25.80
2018-07-03T17:11:29.979Z,25.80
2018-07-03T17:13:58.530Z,25.70
2018-07-03T17:16:27.035Z,25.50
2018-07-03T17:19:00.902Z,25.50
2018-07-03T17:21:29.369Z,25.40
2018-07-03T17:23:57.906Z,25.30
2018-07-03T17:26:26.759Z,25.20
2018-07-03T17:28:55.298Z,25.10
2018-07-03T17:31:23.742Z,25.10
2018-07-03T17:33:52.327Z,25.00
2018-07-03T17:36:24.201Z,24.80
2018-07-03T17:38:52.807Z,24.70
2018-07-03T17:41:33.490Z,24.70
2018-07-03T17:44:15.230Z,24.60
2018-07-03T17:46:43.761Z,24.50
2018-07-03T17:49:12.298Z,24.40
2018-07-03T17:51:40.850Z,24.30
2018-07-03T17:54:09.487Z,24.20
2018-07-03T17:56:38.067Z,24.10
2018-07-03T17:59:06.585Z,24.00
2018-07-03T18:01:35.090Z,23.90
2018-07-03T18:04:03.644Z,23.80
2018-07-03T18:06:33.534Z,23.80
2018-07-03T18:09:02.016Z,23.70
2018-07-03T18:11:30.547Z,23.60
2018-07-03T18:13:59.032Z,23.50
2018-07-03T18:16:27.759Z,23.50
2018-07-03T18:19:01.834Z,23.40
2018-07-03T18:21:30.346Z,23.30
2018-07-03T18:23:58.824Z,23.20
2018-07-03T18:26:27.416Z,23.10
2018-07-03T18:28:55.962Z,23.00
2018-07-03T18:31:24.475Z,22.90
2018-07-03T18:33:53.089Z,22.80
2018-07-03T18:36:21.646Z,22.70
2018-07-03T18:38:50.139Z,22.60
2018-07-03T18:41:18.883Z,22.40
2018-07-03T18:43:47.426Z,22.30
2018-07-03T18:46:15.948Z,22.20
2018-07-03T18:48:44.432Z,22.10
2018-07-03T18:51:12.980Z,21.90
2018-07-03T18:53:41.661Z,21.80
2018-07-03T18:56:10.163Z,21.70
2018-07-03T18:58:38.685Z,21.60
2018-07-03T19:01:07.322Z,21.40
2018-07-03T19:03:36.582Z,21.30
2018-07-03T19:06:05.474Z,21.10
2018-07-03T19:08:34.002Z,21.00
2018-07-03T19:11:03.039Z,20.80
2018-07-03T19:13:32.919Z,20.70
2018-07-03T19:16:01.525Z,20.60
2018-07-03T19:18:30.466Z,20.50
2018-07-03T19:20:59.366Z,20.40
2018-07-03T19:23:27.841Z,20.20
2018-07-03T19:25:57.434Z,20.10
2018-07-03T19:28:25.911Z,20.00
2018-07-03T19:30:54.599Z,19.80
2018-07-03T19:33:23.099Z,19.70
2018-07-03T19:35:51.724Z,19.60
2018-07-03T19:38:23.731Z,19.50
2018-07-03T19:40:52.218Z,19.30
2018-07-03T19:43:25.398Z,19.20
2018-07-03T19:45:55.877Z,19.10
2018-07-03T19:48:28.435Z,19.00
2018-07-03T19:50:57.761Z,18.90
2018-07-03T19:53:28.703Z,18.80
2018-07-03T19:58:31.739Z,18.60
2018-07-03T20:01:00.551Z,18.40
2018-07-03T20:03:29.478Z,18.30
2018-07-03T20:06:00.304Z,18.20
2018-07-03T20:08:29.498Z,18.10
2018-07-03T20:10:58.131Z,18.00
2018-07-03T20:13:26.623Z,17.90
2018-07-03T20:15:55.473Z,17.80
2018-07-03T20:18:27.759Z,17.80
2018-07-03T20:20:56.311Z,17.70
2018-07-03T20:23:24.818Z,17.70
2018-07-03T20:25:53.305Z,17.60
2018-07-03T20:28:21.910Z,17.60
2018-07-03T20:30:52.725Z,17.60
2018-07-03T20:33:21.634Z,17.60
2018-07-03T20:35:50.919Z,17.50
2018-07-03T20:38:19.898Z,17.50
2018-07-03T20:40:58.254Z,17.40
2018-07-03T20:43:27.982Z,17.40
2018-07-03T20:45:56.476Z,17.40
2018-07-03T20:48:25.649Z,17.40
2018-07-03T20:50:55.947Z,17.30
2018-07-03T20:53:24.579Z,17.30
2018-07-03T20:55:53.462Z,17.20
2018-07-03T20:58:22.510Z,17.20
2018-07-03T21:00:50.987Z,17.10
2018-07-03T21:03:19.558Z,17.10
2018-07-03T21:05:48.694Z,17.00
2018-07-03T21:08:17.216Z,17.00
2018-07-03T21:10:45.766Z,16.90
2018-07-03T21:13:14.349Z,16.80
2018-07-03T21:15:42.865Z,16.80
2018-07-03T21:18:11.529Z,16.70
2018-07-03T21:20:40.155Z,16.60
2018-07-03T21:23:08.720Z,16.50
2018-07-03T21:25:37.383Z,16.50
2018-07-03T21:28:06.050Z,16.40
2018-07-03T21:30:34.611Z,16.40
2018-07-03T21:33:04.230Z,16.30
2018-07-03T21:35:34.479Z,16.20
2018-07-03T21:38:05.270Z,16.20
2018-07-03T21:40:33.813Z,16.10
2018-07-03T21:43:07.019Z,16.10
2018-07-03T21:45:35.490Z,16.00
2018-07-03T21:48:04.027Z,16.00
2018-07-03T21:50:33.420Z,15.90
2018-07-03T21:53:01.908Z,15.90
2018-07-03T21:55:30.383Z,15.90
2018-07-03T21:58:04.771Z,15.90
2018-07-03T22:00:36.636Z,15.80
2018-07-03T22:03:10.362Z,15.80
2018-07-03T22:05:39.615Z,15.70
2018-07-03T22:08:08.127Z,15.70
2018-07-03T22:10:36.606Z,15.70
2018-07-03T22:13:05.100Z,15.70
2018-07-03T22:15:33.550Z,15.70
2018-07-03T22:18:02.089Z,15.60
2018-07-03T22:20:30.569Z,15.60
2018-07-03T22:22:59.051Z,15.50
2018-07-03T22:25:27.592Z,15.50
2018-07-03T22:27:56.094Z,15.40
2018-07-03T22:30:24.599Z,15.40
2018-07-03T22:32:53.119Z,15.30
2018-07-03T22:35:21.646Z,15.30
2018-07-03T22:37:50.173Z,15.20
2018-07-03T22:40:19.807Z,15.20
2018-07-03T22:42:48.319Z,15.10
2018-07-03T22:45:16.786Z,15.10
2018-07-03T22:47:46.107Z,15.10
2018-07-03T22:50:14.579Z,15.10
2018-07-03T22:52:43.203Z,15.00
2018-07-03T22:55:11.674Z,14.90
2018-07-03T22:57:40.170Z,14.90
2018-07-03T23:00:08.665Z,14.90
2018-07-03T23:02:37.395Z,14.90
2018-07-03T23:05:06.250Z,14.90
2018-07-03T23:07:35.042Z,14.90
2018-07-03T23:10:03.642Z,14.90
2018-07-03T23:12:32.130Z,14.90
2018-07-03T23:15:00.637Z,14.90
2018-07-03T23:17:31.016Z,14.80
2018-07-03T23:19:59.560Z,14.90
2018-07-03T23:22:28.046Z,14.90
2018-07-03T23:24:56.571Z,14.90
2018-07-03T23:27:25.385Z,14.90
2018-07-03T23:29:53.890Z,14.90
2018-07-03T23:32:24.564Z,14.90
2018-07-03T23:34:53.103Z,14.90
2018-07-03T23:37:21.598Z,14.90
2018-07-03T23:39:50.116Z,14.90
2018-07-03T23:42:18.786Z,14.90
2018-07-03T23:44:47.297Z,14.90
2018-07-03T23:47:26.848Z,14.90
2018-07-03T23:50:06.472Z,14.90
2018-07-03T23:52:46.134Z,14.90
2018-07-03T23:55:25.756Z,14.90
2018-07-03T23:58:05.214Z,14.90
